sensor_id;sensor_type;location;lat;lon;timestamp;P1;durP1;ratioP1;P2;durP2;ratioP2
8927;SDS011;4499;48.304;11.902;2022-07-06T00:01:23;2.90;;;1.90;;
8927;SDS011;4499;48.304;11.902;2022-07-06T00:03:51;4.10;;;1.87;;
8927;SDS011;4499;48.304;11.902;2022-07-06T00:06:22;1.70;;;1.47;;
8927;SDS011;4499;48.304;11.902;2022-07-06T00:08:51;4.70;;;1.63;;
8927;SDS011;4499;48.304;11.902;2022-07-06T00:11:19;1.90;;;1.70;;
8927;SDS011;4499;48.304;11.902;2022-07-06T00:13:47;6.17;;;1.90;;
8927;SDS011;4499;48.304;11.902;2022-07-06T00:16:16;1.90;;;1.60;;
8927;SDS011;4499;48.304;11.902;2022-07-06T00:18:44;3.90;;;1.80;;
8927;SDS011;4499;48.304;11.902;2022-07-06T00:21:12;4.37;;;1.70;;
8927;SDS011;4499;48.304;11.902;2022-07-06T00:23:42;2.33;;;1.60;;
8927;SDS011;4499;48.304;11.902;2022-07-06T00:26:10;1.90;;;1.70;;
8927;SDS011;4499;48.304;11.902;2022-07-06T00:28:39;2.43;;;1.67;;
8927;SDS011;4499;48.304;11.902;2022-07-06T00:31:08;2.30;;;1.60;;
8927;SDS011;4499;48.304;11.902;2022-07-06T00:33:36;2.57;;;1.70;;
8927;SDS011;4499;48.304;11.902;2022-07-06T00:36:04;3.73;;;1.60;;
8927;SDS011;4499;48.304;11.902;2022-07-06T00:38:33;2.37;;;1.60;;
8927;SDS011;4499;48.304;11.902;2022-07-06T00:41:02;3.93;;;1.80;;
8927;SDS011;4499;48.304;11.902;2022-07-06T00:43:45;4.60;;;1.97;;
8927;SDS011;4499;48.304;11.902;2022-07-06T00:46:18;2.03;;;1.33;;
8927;SDS011;4499;48.304;11.902;2022-07-06T00:48:46;4.47;;;1.90;;
8927;SDS011;4499;48.304;11.902;2022-07-06T00:51:14;3.70;;;1.50;;
8927;SDS011;4499;48.304;11.902;2022-07-06T00:53:43;3.60;;;1.70;;
8927;SDS011;4499;48.304;11.902;2022-07-06T00:56:14;5.23;;;1.90;;
8927;SDS011;4499;48.304;11.902;2022-07-06T00:58:43;4.00;;;1.77;;
8927;SDS011;4499;48.304;11.902;2022-07-06T01:01:12;4.60;;;1.90;;
8927;SDS011;4499;48.304;11.902;2022-07-06T01:03:40;4.67;;;1.77;;
8927;SDS011;4499;48.304;11.902;2022-07-06T01:06:08;3.80;;;1.80;;
8927;SDS011;4499;48.304;11.902;2022-07-06T01:08:38;5.10;;;1.80;;
8927;SDS011;4499;48.304;11.902;2022-07-06T01:11:06;3.00;;;1.67;;
8927;SDS011;4499;48.304;11.902;2022-07-06T01:13:36;5.23;;;2.00;;
8927;SDS011;4499;48.304;11.902;2022-07-06T01:16:04;3.93;;;1.87;;
8927;SDS011;4499;48.304;11.902;2022-07-06T01:18:33;3.17;;;1.90;;
8927;SDS011;4499;48.304;11.902;2022-07-06T01:21:07;4.27;;;2.00;;
8927;SDS011;4499;48.304;11.902;2022-07-06T01:23:39;4.20;;;2.07;;
8927;SDS011;4499;48.304;11.902;2022-07-06T01:26:12;4.90;;;1.80;;
8927;SDS011;4499;48.304;11.902;2022-07-06T01:28:41;4.43;;;2.00;;
8927;SDS011;4499;48.304;11.902;2022-07-06T01:31:17;5.10;;;1.90;;
8927;SDS011;4499;48.304;11.902;2022-07-06T01:33:47;9.10;;;1.90;;
8927;SDS011;4499;48.304;11.902;2022-07-06T01:36:17;3.37;;;1.90;;
8927;SDS011;4499;48.304;11.902;2022-07-06T01:38:46;5.57;;;2.10;;
8927;SDS011;4499;48.304;11.902;2022-07-06T01:41:15;3.13;;;1.87;;
8927;SDS011;4499;48.304;11.902;2022-07-06T01:43:44;3.40;;;1.90;;
8927;SDS011;4499;48.304;11.902;2022-07-06T01:46:12;2.93;;;1.80;;
8927;SDS011;4499;48.304;11.902;2022-07-06T01:48:41;4.33;;;1.90;;
8927;SDS011;4499;48.304;11.902;2022-07-06T01:51:10;3.70;;;2.10;;
8927;SDS011;4499;48.304;11.902;2022-07-06T01:53:40;5.97;;;2.20;;
8927;SDS011;4499;48.304;11.902;2022-07-06T01:56:08;3.70;;;2.10;;
8927;SDS011;4499;48.304;11.902;2022-07-06T01:58:37;3.10;;;2.03;;
8927;SDS011;4499;48.304;11.902;2022-07-06T02:01:06;3.87;;;2.27;;
8927;SDS011;4499;48.304;11.902;2022-07-06T02:03:36;3.80;;;2.10;;
8927;SDS011;4499;48.304;11.902;2022-07-06T02:06:05;6.17;;;2.30;;
8927;SDS011;4499;48.304;11.902;2022-07-06T02:08:33;4.63;;;2.40;;
8927;SDS011;4499;48.304;11.902;2022-07-06T02:11:04;3.77;;;2.10;;
8927;SDS011;4499;48.304;11.902;2022-07-06T02:13:33;9.77;;;2.47;;
8927;SDS011;4499;48.304;11.902;2022-07-06T02:16:02;5.83;;;2.57;;
8927;SDS011;4499;48.304;11.902;2022-07-06T02:18:31;3.87;;;2.30;;
8927;SDS011;4499;48.304;11.902;2022-07-06T02:20:59;3.33;;;2.20;;
8927;SDS011;4499;48.304;11.902;2022-07-06T02:23:27;5.63;;;2.60;;
8927;SDS011;4499;48.304;11.902;2022-07-06T02:25:55;3.67;;;2.40;;
8927;SDS011;4499;48.304;11.902;2022-07-06T02:28:25;4.23;;;2.60;;
8927;SDS011;4499;48.304;11.902;2022-07-06T02:30:53;3.63;;;2.43;;
8927;SDS011;4499;48.304;11.902;2022-07-06T02:33:21;5.43;;;2.43;;
8927;SDS011;4499;48.304;11.902;2022-07-06T02:35:49;2.87;;;2.27;;
8927;SDS011;4499;48.304;11.902;2022-07-06T02:38:18;4.67;;;2.50;;
8927;SDS011;4499;48.304;11.902;2022-07-06T02:40:47;4.30;;;2.73;;
8927;SDS011;4499;48.304;11.902;2022-07-06T02:43:15;5.03;;;2.60;;
8927;SDS011;4499;48.304;11.902;2022-07-06T02:45:44;6.07;;;2.60;;
8927;SDS011;4499;48.304;11.902;2022-07-06T02:48:12;4.63;;;2.80;;
8927;SDS011;4499;48.304;11.902;2022-07-06T02:50:41;4.33;;;2.60;;
8927;SDS011;4499;48.304;11.902;2022-07-06T02:53:09;6.33;;;2.70;;
8927;SDS011;4499;48.304;11.902;2022-07-06T02:55:37;5.27;;;2.80;;
8927;SDS011;4499;48.304;11.902;2022-07-06T02:58:05;4.07;;;2.60;;
8927;SDS011;4499;48.304;11.902;2022-07-06T03:00:33;5.87;;;2.93;;
8927;SDS011;4499;48.304;11.902;2022-07-06T03:03:03;3.37;;;2.50;;
8927;SDS011;4499;48.304;11.902;2022-07-06T03:05:31;4.67;;;3.00;;
8927;SDS011;4499;48.304;11.902;2022-07-06T03:08:00;4.77;;;2.50;;
8927;SDS011;4499;48.304;11.902;2022-07-06T03:10:28;4.23;;;2.63;;
8927;SDS011;4499;48.304;11.902;2022-07-06T03:12:56;3.43;;;2.60;;
8927;SDS011;4499;48.304;11.902;2022-07-06T03:15:24;3.23;;;2.60;;
8927;SDS011;4499;48.304;11.902;2022-07-06T03:17:53;5.20;;;2.60;;
8927;SDS011;4499;48.304;11.902;2022-07-06T03:20:22;4.77;;;2.67;;
8927;SDS011;4499;48.304;11.902;2022-07-06T03:22:50;4.40;;;2.90;;
8927;SDS011;4499;48.304;11.902;2022-07-06T03:25:18;5.43;;;2.87;;
8927;SDS011;4499;48.304;11.902;2022-07-06T03:27:46;4.27;;;2.70;;
8927;SDS011;4499;48.304;11.902;2022-07-06T03:30:14;3.00;;;2.63;;
8927;SDS011;4499;48.304;11.902;2022-07-06T03:32:43;5.00;;;2.50;;
8927;SDS011;4499;48.304;11.902;2022-07-06T03:35:11;5.43;;;2.80;;
8927;SDS011;4499;48.304;11.902;2022-07-06T03:37:40;5.33;;;2.70;;
8927;SDS011;4499;48.304;11.902;2022-07-06T03:40:09;6.43;;;3.10;;
8927;SDS011;4499;48.304;11.902;2022-07-06T03:42:39;4.13;;;2.83;;
8927;SDS011;4499;48.304;11.902;2022-07-06T03:45:07;6.10;;;2.30;;
8927;SDS011;4499;48.304;11.902;2022-07-06T03:47:36;7.37;;;3.23;;
8927;SDS011;4499;48.304;11.902;2022-07-06T03:50:05;3.30;;;2.60;;
8927;SDS011;4499;48.304;11.902;2022-07-06T03:52:34;5.30;;;2.80;;
8927;SDS011;4499;48.304;11.902;2022-07-06T03:55:08;4.93;;;2.73;;
8927;SDS011;4499;48.304;11.902;2022-07-06T03:57:38;6.97;;;2.80;;
8927;SDS011;4499;48.304;11.902;2022-07-06T04:00:07;5.93;;;2.50;;
8927;SDS011;4499;48.304;11.902;2022-07-06T04:02:36;4.50;;;2.60;;
8927;SDS011;4499;48.304;11.902;2022-07-06T04:05:04;4.17;;;2.70;;
8927;SDS011;4499;48.304;11.902;2022-07-06T04:07:33;4.43;;;2.73;;
8927;SDS011;4499;48.304;11.902;2022-07-06T04:10:01;3.67;;;2.80;;
8927;SDS011;4499;48.304;11.902;2022-07-06T04:12:31;5.53;;;2.63;;
8927;SDS011;4499;48.304;11.902;2022-07-06T04:14:59;3.53;;;2.63;;
8927;SDS011;4499;48.304;11.902;2022-07-06T04:17:28;2.60;;;2.33;;
8927;SDS011;4499;48.304;11.902;2022-07-06T04:20:13;6.47;;;2.57;;
8927;SDS011;4499;48.304;11.902;2022-07-06T04:22:42;3.40;;;2.30;;
8927;SDS011;4499;48.304;11.902;2022-07-06T04:25:10;4.30;;;2.77;;
8927;SDS011;4499;48.304;11.902;2022-07-06T04:27:39;3.90;;;2.63;;
8927;SDS011;4499;48.304;11.902;2022-07-06T04:30:08;5.03;;;2.53;;
8927;SDS011;4499;48.304;11.902;2022-07-06T04:32:37;4.30;;;2.60;;
8927;SDS011;4499;48.304;11.902;2022-07-06T04:35:06;4.20;;;2.67;;
8927;SDS011;4499;48.304;11.902;2022-07-06T04:37:34;2.90;;;2.40;;
8927;SDS011;4499;48.304;11.902;2022-07-06T04:40:04;5.77;;;2.60;;
8927;SDS011;4499;48.304;11.902;2022-07-06T04:42:33;8.43;;;2.87;;
8927;SDS011;4499;48.304;11.902;2022-07-06T04:45:02;2.43;;;2.23;;
8927;SDS011;4499;48.304;11.902;2022-07-06T04:47:31;4.30;;;2.50;;
8927;SDS011;4499;48.304;11.902;2022-07-06T04:49:59;3.87;;;2.50;;
8927;SDS011;4499;48.304;11.902;2022-07-06T04:52:27;3.33;;;2.60;;
8927;SDS011;4499;48.304;11.902;2022-07-06T04:54:55;6.47;;;2.70;;
8927;SDS011;4499;48.304;11.902;2022-07-06T04:57:24;3.43;;;2.50;;
8927;SDS011;4499;48.304;11.902;2022-07-06T04:59:55;3.67;;;2.40;;
8927;SDS011;4499;48.304;11.902;2022-07-06T05:02:24;6.50;;;2.60;;
8927;SDS011;4499;48.304;11.902;2022-07-06T05:04:53;3.40;;;2.40;;
8927;SDS011;4499;48.304;11.902;2022-07-06T05:07:21;3.87;;;2.20;;
8927;SDS011;4499;48.304;11.902;2022-07-06T05:09:54;4.97;;;2.30;;
8927;SDS011;4499;48.304;11.902;2022-07-06T05:12:22;6.80;;;2.00;;
8927;SDS011;4499;48.304;11.902;2022-07-06T05:14:50;2.90;;;2.07;;
8927;SDS011;4499;48.304;11.902;2022-07-06T05:17:18;3.53;;;2.17;;
8927;SDS011;4499;48.304;11.902;2022-07-06T05:19:55;2.37;;;1.90;;
8927;SDS011;4499;48.304;11.902;2022-07-06T05:22:24;2.60;;;1.97;;
8927;SDS011;4499;48.304;11.902;2022-07-06T05:24:54;3.43;;;2.00;;
8927;SDS011;4499;48.304;11.902;2022-07-06T05:27:22;3.33;;;1.80;;
8927;SDS011;4499;48.304;11.902;2022-07-06T05:29:50;3.47;;;1.97;;
8927;SDS011;4499;48.304;11.902;2022-07-06T05:32:18;3.60;;;1.90;;
8927;SDS011;4499;48.304;11.902;2022-07-06T05:34:47;4.23;;;2.03;;
8927;SDS011;4499;48.304;11.902;2022-07-06T05:37:16;2.07;;;1.87;;
8927;SDS011;4499;48.304;11.902;2022-07-06T05:39:45;3.77;;;1.80;;
8927;SDS011;4499;48.304;11.902;2022-07-06T05:42:15;4.83;;;1.90;;
8927;SDS011;4499;48.304;11.902;2022-07-06T05:44:44;2.60;;;1.90;;
8927;SDS011;4499;48.304;11.902;2022-07-06T05:47:12;3.03;;;1.67;;
8927;SDS011;4499;48.304;11.902;2022-07-06T05:50:06;2.93;;;1.60;;
8927;SDS011;4499;48.304;11.902;2022-07-06T05:52:43;4.27;;;1.80;;
8927;SDS011;4499;48.304;11.902;2022-07-06T05:55:21;3.10;;;1.80;;
8927;SDS011;4499;48.304;11.902;2022-07-06T05:57:50;4.07;;;1.70;;
8927;SDS011;4499;48.304;11.902;2022-07-06T06:00:20;3.03;;;1.67;;
8927;SDS011;4499;48.304;11.902;2022-07-06T06:02:48;3.13;;;1.80;;
8927;SDS011;4499;48.304;11.902;2022-07-06T06:05:17;2.17;;;1.60;;
8927;SDS011;4499;48.304;11.902;2022-07-06T06:07:51;2.13;;;1.50;;
8927;SDS011;4499;48.304;11.902;2022-07-06T06:10:20;4.00;;;1.60;;
8927;SDS011;4499;48.304;11.902;2022-07-06T06:12:49;3.90;;;1.47;;
8927;SDS011;4499;48.304;11.902;2022-07-06T06:15:18;1.93;;;1.40;;
8927;SDS011;4499;48.304;11.902;2022-07-06T06:17:46;2.97;;;1.70;;
8927;SDS011;4499;48.304;11.902;2022-07-06T06:20:14;3.27;;;1.57;;
8927;SDS011;4499;48.304;11.902;2022-07-06T06:22:44;5.70;;;1.60;;
8927;SDS011;4499;48.304;11.902;2022-07-06T06:25:14;3.17;;;1.60;;
8927;SDS011;4499;48.304;11.902;2022-07-06T06:27:43;4.33;;;1.60;;
8927;SDS011;4499;48.304;11.902;2022-07-06T06:30:12;2.60;;;1.70;;
8927;SDS011;4499;48.304;11.902;2022-07-06T06:32:40;3.97;;;1.67;;
8927;SDS011;4499;48.304;11.902;2022-07-06T06:35:09;3.03;;;1.60;;
8927;SDS011;4499;48.304;11.902;2022-07-06T06:37:37;3.27;;;1.73;;
8927;SDS011;4499;48.304;11.902;2022-07-06T06:40:06;3.37;;;1.60;;
8927;SDS011;4499;48.304;11.902;2022-07-06T06:42:36;2.00;;;1.40;;
8927;SDS011;4499;48.304;11.902;2022-07-06T06:45:05;3.47;;;1.73;;
8927;SDS011;4499;48.304;11.902;2022-07-06T06:47:37;4.35;;;1.80;;
8927;SDS011;4499;48.304;11.902;2022-07-06T06:50:06;3.95;;;1.80;;
8927;SDS011;4499;48.304;11.902;2022-07-06T06:52:34;3.55;;;1.60;;
8927;SDS011;4499;48.304;11.902;2022-07-06T06:55:06;4.35;;;1.50;;
8927;SDS011;4499;48.304;11.902;2022-07-06T06:57:36;2.83;;;1.70;;
8927;SDS011;4499;48.304;11.902;2022-07-06T07:00:05;2.72;;;1.60;;
8927;SDS011;4499;48.304;11.902;2022-07-06T07:02:34;3.70;;;1.80;;
8927;SDS011;4499;48.304;11.902;2022-07-06T07:05:03;4.05;;;1.70;;
8927;SDS011;4499;48.304;11.902;2022-07-06T07:07:32;7.72;;;1.60;;
8927;SDS011;4499;48.304;11.902;2022-07-06T07:10:00;2.78;;;1.80;;
8927;SDS011;4499;48.304;11.902;2022-07-06T07:12:29;3.40;;;1.50;;
8927;SDS011;4499;48.304;11.902;2022-07-06T07:15:00;4.05;;;1.75;;
8927;SDS011;4499;48.304;11.902;2022-07-06T07:17:32;5.28;;;1.98;;
8927;SDS011;4499;48.304;11.902;2022-07-06T07:20:01;5.43;;;2.00;;
8927;SDS011;4499;48.304;11.902;2022-07-06T07:22:29;3.95;;;1.48;;
8927;SDS011;4499;48.304;11.902;2022-07-06T07:24:58;3.40;;;1.77;;
8927;SDS011;4499;48.304;11.902;2022-07-06T07:27:26;4.65;;;1.60;;
8927;SDS011;4499;48.304;11.902;2022-07-06T07:29:54;3.65;;;1.70;;
8927;SDS011;4499;48.304;11.902;2022-07-06T07:32:23;3.67;;;1.73;;
8927;SDS011;4499;48.304;11.902;2022-07-06T07:34:52;5.38;;;2.10;;
8927;SDS011;4499;48.304;11.902;2022-07-06T07:37:20;2.25;;;1.60;;
8927;SDS011;4499;48.304;11.902;2022-07-06T07:39:49;3.80;;;1.70;;
8927;SDS011;4499;48.304;11.902;2022-07-06T07:42:17;3.47;;;1.55;;
8927;SDS011;4499;48.304;11.902;2022-07-06T07:44:46;5.38;;;1.75;;
8927;SDS011;4499;48.304;11.902;2022-07-06T07:47:14;4.05;;;1.58;;
8927;SDS011;4499;48.304;11.902;2022-07-06T07:49:44;4.60;;;1.70;;
8927;SDS011;4499;48.304;11.902;2022-07-06T07:52:12;4.90;;;1.90;;
8927;SDS011;4499;48.304;11.902;2022-07-06T07:54:41;4.57;;;2.05;;
8927;SDS011;4499;48.304;11.902;2022-07-06T07:57:19;2.42;;;1.60;;
8927;SDS011;4499;48.304;11.902;2022-07-06T07:59:47;3.65;;;1.63;;
8927;SDS011;4499;48.304;11.902;2022-07-06T08:02:15;6.15;;;1.85;;
8927;SDS011;4499;48.304;11.902;2022-07-06T08:04:45;5.50;;;1.73;;
8927;SDS011;4499;48.304;11.902;2022-07-06T08:07:13;3.17;;;1.70;;
8927;SDS011;4499;48.304;11.902;2022-07-06T08:09:42;4.93;;;2.10;;
8927;SDS011;4499;48.304;11.902;2022-07-06T08:12:10;5.97;;;2.05;;
8927;SDS011;4499;48.304;11.902;2022-07-06T08:14:38;4.85;;;1.75;;
8927;SDS011;4499;48.304;11.902;2022-07-06T08:17:06;4.50;;;1.90;;
8927;SDS011;4499;48.304;11.902;2022-07-06T08:19:34;5.15;;;1.98;;
8927;SDS011;4499;48.304;11.902;2022-07-06T08:22:04;3.75;;;1.85;;
8927;SDS011;4499;48.304;11.902;2022-07-06T08:24:33;4.75;;;2.10;;
8927;SDS011;4499;48.304;11.902;2022-07-06T08:27:02;3.35;;;1.85;;
8927;SDS011;4499;48.304;11.902;2022-07-06T08:29:30;5.28;;;1.80;;
8927;SDS011;4499;48.304;11.902;2022-07-06T08:31:59;4.32;;;1.90;;
8927;SDS011;4499;48.304;11.902;2022-07-06T08:34:41;2.63;;;1.80;;
8927;SDS011;4499;48.304;11.902;2022-07-06T08:37:13;6.53;;;1.80;;
8927;SDS011;4499;48.304;11.902;2022-07-06T08:39:41;4.72;;;2.00;;
8927;SDS011;4499;48.304;11.902;2022-07-06T08:42:09;4.22;;;2.00;;
8927;SDS011;4499;48.304;11.902;2022-07-06T08:44:38;4.22;;;1.88;;
8927;SDS011;4499;48.304;11.902;2022-07-06T08:47:07;3.95;;;1.70;;
8927;SDS011;4499;48.304;11.902;2022-07-06T08:49:37;5.10;;;1.90;;
8927;SDS011;4499;48.304;11.902;2022-07-06T08:52:06;4.20;;;1.88;;
8927;SDS011;4499;48.304;11.902;2022-07-06T08:54:37;3.33;;;1.90;;
8927;SDS011;4499;48.304;11.902;2022-07-06T08:57:05;3.53;;;2.17;;
8927;SDS011;4499;48.304;11.902;2022-07-06T08:59:34;2.90;;;1.90;;
8927;SDS011;4499;48.304;11.902;2022-07-06T09:02:03;4.45;;;2.20;;
8927;SDS011;4499;48.304;11.902;2022-07-06T09:04:32;5.65;;;1.95;;
8927;SDS011;4499;48.304;11.902;2022-07-06T09:07:02;3.92;;;1.83;;
8927;SDS011;4499;48.304;11.902;2022-07-06T09:09:31;3.17;;;2.03;;
8927;SDS011;4499;48.304;11.902;2022-07-06T09:12:00;6.35;;;2.17;;
8927;SDS011;4499;48.304;11.902;2022-07-06T09:14:29;6.13;;;1.70;;
8927;SDS011;4499;48.304;11.902;2022-07-06T09:17:01;5.63;;;2.25;;
8927;SDS011;4499;48.304;11.902;2022-07-06T09:19:31;7.90;;;2.28;;
8927;SDS011;4499;48.304;11.902;2022-07-06T09:22:00;3.17;;;1.80;;
8927;SDS011;4499;48.304;11.902;2022-07-06T09:24:29;4.55;;;1.83;;
8927;SDS011;4499;48.304;11.902;2022-07-06T09:26:59;5.30;;;2.10;;
8927;SDS011;4499;48.304;11.902;2022-07-06T09:29:31;3.42;;;1.90;;
8927;SDS011;4499;48.304;11.902;2022-07-06T09:32:00;4.68;;;1.88;;
8927;SDS011;4499;48.304;11.902;2022-07-06T09:34:41;3.53;;;1.90;;
8927;SDS011;4499;48.304;11.902;2022-07-06T09:37:13;6.60;;;1.83;;
8927;SDS011;4499;48.304;11.902;2022-07-06T09:39:43;5.97;;;2.30;;
8927;SDS011;4499;48.304;11.902;2022-07-06T09:42:13;4.78;;;2.13;;
8927;SDS011;4499;48.304;11.902;2022-07-06T09:44:42;9.38;;;2.20;;
8927;SDS011;4499;48.304;11.902;2022-07-06T09:47:10;3.63;;;2.00;;
8927;SDS011;4499;48.304;11.902;2022-07-06T09:49:41;3.28;;;2.00;;
8927;SDS011;4499;48.304;11.902;2022-07-06T09:52:10;6.68;;;2.00;;
8927;SDS011;4499;48.304;11.902;2022-07-06T09:54:39;7.07;;;1.80;;
8927;SDS011;4499;48.304;11.902;2022-07-06T09:57:09;3.55;;;1.90;;
8927;SDS011;4499;48.304;11.902;2022-07-06T09:59:38;3.72;;;2.00;;
8927;SDS011;4499;48.304;11.902;2022-07-06T10:02:07;4.07;;;1.90;;
8927;SDS011;4499;48.304;11.902;2022-07-06T10:04:35;4.97;;;2.20;;
8927;SDS011;4499;48.304;11.902;2022-07-06T10:07:04;3.97;;;1.65;;
8927;SDS011;4499;48.304;11.902;2022-07-06T10:09:35;3.03;;;1.70;;
8927;SDS011;4499;48.304;11.902;2022-07-06T10:12:03;5.00;;;1.90;;
8927;SDS011;4499;48.304;11.902;2022-07-06T10:14:36;4.75;;;2.00;;
8927;SDS011;4499;48.304;11.902;2022-07-06T10:17:16;4.93;;;1.80;;
8927;SDS011;4499;48.304;11.902;2022-07-06T10:19:45;4.65;;;1.80;;
8927;SDS011;4499;48.304;11.902;2022-07-06T10:22:15;3.20;;;1.80;;
8927;SDS011;4499;48.304;11.902;2022-07-06T10:24:45;5.50;;;1.63;;
8927;SDS011;4499;48.304;11.902;2022-07-06T10:27:15;6.55;;;1.70;;
8927;SDS011;4499;48.304;11.902;2022-07-06T10:29:45;2.92;;;1.80;;
8927;SDS011;4499;48.304;11.902;2022-07-06T10:32:13;3.65;;;1.80;;
8927;SDS011;4499;48.304;11.902;2022-07-06T10:34:46;4.18;;;2.00;;
8927;SDS011;4499;48.304;11.902;2022-07-06T10:37:21;5.30;;;1.83;;
8927;SDS011;4499;48.304;11.902;2022-07-06T10:39:51;2.55;;;1.88;;
8927;SDS011;4499;48.304;11.902;2022-07-06T10:42:41;4.03;;;1.67;;
8927;SDS011;4499;48.304;11.902;2022-07-06T10:45:14;2.55;;;1.50;;
8927;SDS011;4499;48.304;11.902;2022-07-06T10:47:46;5.45;;;1.70;;
8927;SDS011;4499;48.304;11.902;2022-07-06T10:50:14;5.28;;;1.67;;
8927;SDS011;4499;48.304;11.902;2022-07-06T10:52:49;2.83;;;1.70;;
8927;SDS011;4499;48.304;11.902;2022-07-06T10:58:05;3.63;;;1.50;;
8927;SDS011;4499;48.304;11.902;2022-07-06T11:00:51;4.97;;;1.60;;
8927;SDS011;4499;48.304;11.902;2022-07-06T11:03:30;3.05;;;1.90;;
8927;SDS011;4499;48.304;11.902;2022-07-06T11:06:00;4.35;;;1.98;;
8927;SDS011;4499;48.304;11.902;2022-07-06T11:08:47;3.25;;;1.65;;
8927;SDS011;4499;48.304;11.902;2022-07-06T11:11:18;5.03;;;1.75;;
8927;SDS011;4499;48.304;11.902;2022-07-06T11:13:47;7.78;;;1.80;;
8927;SDS011;4499;48.304;11.902;2022-07-06T11:16:19;4.85;;;1.77;;
8927;SDS011;4499;48.304;11.902;2022-07-06T11:18:49;3.95;;;1.70;;
8927;SDS011;4499;48.304;11.902;2022-07-06T11:21:36;3.72;;;1.70;;
8927;SDS011;4499;48.304;11.902;2022-07-06T11:24:07;3.00;;;1.77;;
8927;SDS011;4499;48.304;11.902;2022-07-06T11:26:38;2.22;;;1.70;;
8927;SDS011;4499;48.304;11.902;2022-07-06T11:29:08;7.22;;;1.65;;
8927;SDS011;4499;48.304;11.902;2022-07-06T11:31:40;3.20;;;1.77;;
8927;SDS011;4499;48.304;11.902;2022-07-06T11:34:10;3.72;;;1.60;;
8927;SDS011;4499;48.304;11.902;2022-07-06T11:36:40;4.50;;;1.90;;
8927;SDS011;4499;48.304;11.902;2022-07-06T11:39:12;7.65;;;3.75;;
8927;SDS011;4499;48.304;11.902;2022-07-06T11:41:40;6.88;;;2.45;;
8927;SDS011;4499;48.304;11.902;2022-07-06T11:44:16;6.32;;;1.67;;
8927;SDS011;4499;48.304;11.902;2022-07-06T11:46:46;3.25;;;1.40;;
8927;SDS011;4499;48.304;11.902;2022-07-06T11:49:14;7.05;;;1.90;;
8927;SDS011;4499;48.304;11.902;2022-07-06T11:51:44;2.92;;;1.60;;
8927;SDS011;4499;48.304;11.902;2022-07-06T11:54:13;5.90;;;1.75;;
8927;SDS011;4499;48.304;11.902;2022-07-06T11:56:45;3.43;;;2.07;;
8927;SDS011;4499;48.304;11.902;2022-07-06T11:59:19;6.27;;;1.87;;
8927;SDS011;4499;48.304;11.902;2022-07-06T12:01:57;3.17;;;1.60;;
8927;SDS011;4499;48.304;11.902;2022-07-06T12:04:27;4.30;;;1.70;;
8927;SDS011;4499;48.304;11.902;2022-07-06T12:06:59;4.37;;;1.73;;
8927;SDS011;4499;48.304;11.902;2022-07-06T12:09:29;3.60;;;1.60;;
8927;SDS011;4499;48.304;11.902;2022-07-06T12:11:58;3.10;;;1.60;;
8927;SDS011;4499;48.304;11.902;2022-07-06T12:14:29;9.70;;;2.67;;
8927;SDS011;4499;48.304;11.902;2022-07-06T12:17:03;5.37;;;1.90;;
8927;SDS011;4499;48.304;11.902;2022-07-06T12:19:33;6.87;;;1.90;;
8927;SDS011;4499;48.304;11.902;2022-07-06T12:22:02;4.17;;;1.60;;
8927;SDS011;4499;48.304;11.902;2022-07-06T12:24:32;3.17;;;1.60;;
8927;SDS011;4499;48.304;11.902;2022-07-06T12:27:09;4.13;;;1.53;;
8927;SDS011;4499;48.304;11.902;2022-07-06T12:29:38;3.77;;;1.70;;
8927;SDS011;4499;48.304;11.902;2022-07-06T12:32:13;3.80;;;1.60;;
8927;SDS011;4499;48.304;11.902;2022-07-06T12:34:42;3.33;;;1.70;;
8927;SDS011;4499;48.304;11.902;2022-07-06T12:37:11;2.57;;;1.70;;
8927;SDS011;4499;48.304;11.902;2022-07-06T12:39:41;5.23;;;1.60;;
8927;SDS011;4499;48.304;11.902;2022-07-06T12:42:12;4.70;;;2.00;;
8927;SDS011;4499;48.304;11.902;2022-07-06T12:44:45;3.33;;;1.57;;
8927;SDS011;4499;48.304;11.902;2022-07-06T12:47:17;4.37;;;1.80;;
8927;SDS011;4499;48.304;11.902;2022-07-06T12:49:48;5.30;;;1.60;;
8927;SDS011;4499;48.304;11.902;2022-07-06T12:52:31;3.43;;;1.57;;
8927;SDS011;4499;48.304;11.902;2022-07-06T12:55:00;4.47;;;1.60;;
8927;SDS011;4499;48.304;11.902;2022-07-06T12:57:42;2.00;;;1.47;;
8927;SDS011;4499;48.304;11.902;2022-07-06T13:00:11;4.73;;;1.50;;
8927;SDS011;4499;48.304;11.902;2022-07-06T13:02:43;5.27;;;1.70;;
8927;SDS011;4499;48.304;11.902;2022-07-06T13:05:32;4.40;;;1.50;;
8927;SDS011;4499;48.304;11.902;2022-07-06T13:08:02;3.00;;;1.37;;
8927;SDS011;4499;48.304;11.902;2022-07-06T13:10:31;1.97;;;1.37;;
8927;SDS011;4499;48.304;11.902;2022-07-06T13:13:00;4.87;;;3.30;;
8927;SDS011;4499;48.304;11.902;2022-07-06T13:15:28;2.27;;;1.40;;
8927;SDS011;4499;48.304;11.902;2022-07-06T13:17:58;3.47;;;1.60;;
8927;SDS011;4499;48.304;11.902;2022-07-06T13:20:26;5.80;;;1.40;;
8927;SDS011;4499;48.304;11.902;2022-07-06T13:22:58;2.27;;;1.50;;
8927;SDS011;4499;48.304;11.902;2022-07-06T13:25:26;4.23;;;1.57;;
8927;SDS011;4499;48.304;11.902;2022-07-06T13:27:56;5.03;;;1.50;;
8927;SDS011;4499;48.304;11.902;2022-07-06T13:30:24;2.60;;;1.40;;
8927;SDS011;4499;48.304;11.902;2022-07-06T13:32:52;2.97;;;1.50;;
8927;SDS011;4499;48.304;11.902;2022-07-06T13:35:22;2.90;;;1.60;;
8927;SDS011;4499;48.304;11.902;2022-07-06T13:37:50;4.23;;;1.50;;
8927;SDS011;4499;48.304;11.902;2022-07-06T13:40:19;2.07;;;1.40;;
8927;SDS011;4499;48.304;11.902;2022-07-06T13:42:47;4.20;;;1.50;;
8927;SDS011;4499;48.304;11.902;2022-07-06T13:45:15;4.23;;;1.50;;
8927;SDS011;4499;48.304;11.902;2022-07-06T13:47:44;2.97;;;1.43;;
8927;SDS011;4499;48.304;11.902;2022-07-06T13:50:12;4.07;;;1.40;;
8927;SDS011;4499;48.304;11.902;2022-07-06T13:52:42;3.43;;;1.53;;
8927;SDS011;4499;48.304;11.902;2022-07-06T13:55:10;4.50;;;1.50;;
8927;SDS011;4499;48.304;11.902;2022-07-06T13:57:39;4.27;;;1.50;;
8927;SDS011;4499;48.304;11.902;2022-07-06T14:00:09;3.37;;;1.50;;
8927;SDS011;4499;48.304;11.902;2022-07-06T14:02:38;2.93;;;1.30;;
8927;SDS011;4499;48.304;11.902;2022-07-06T14:05:06;4.07;;;1.60;;
8927;SDS011;4499;48.304;11.902;2022-07-06T14:07:35;5.23;;;1.40;;
8927;SDS011;4499;48.304;11.902;2022-07-06T14:10:06;2.43;;;1.40;;
8927;SDS011;4499;48.304;11.902;2022-07-06T14:12:35;5.50;;;1.53;;
8927;SDS011;4499;48.304;11.902;2022-07-06T14:15:03;2.30;;;1.60;;
8927;SDS011;4499;48.304;11.902;2022-07-06T14:17:32;5.17;;;1.60;;
8927;SDS011;4499;48.304;11.902;2022-07-06T14:20:00;5.70;;;1.50;;
8927;SDS011;4499;48.304;11.902;2022-07-06T14:22:29;3.23;;;1.40;;
8927;SDS011;4499;48.304;11.902;2022-07-06T14:24:57;2.97;;;1.40;;
8927;SDS011;4499;48.304;11.902;2022-07-06T14:27:27;2.67;;;1.60;;
8927;SDS011;4499;48.304;11.902;2022-07-06T14:29:55;3.10;;;1.50;;
8927;SDS011;4499;48.304;11.902;2022-07-06T14:32:24;4.03;;;1.50;;
8927;SDS011;4499;48.304;11.902;2022-07-06T14:34:52;2.50;;;1.40;;
8927;SDS011;4499;48.304;11.902;2022-07-06T14:37:21;1.57;;;1.47;;
8927;SDS011;4499;48.304;11.902;2022-07-06T14:39:49;1.90;;;1.40;;
8927;SDS011;4499;48.304;11.902;2022-07-06T14:42:19;5.00;;;1.70;;
8927;SDS011;4499;48.304;11.902;2022-07-06T14:44:48;4.63;;;1.60;;
8927;SDS011;4499;48.304;11.902;2022-07-06T14:47:17;3.13;;;1.50;;
8927;SDS011;4499;48.304;11.902;2022-07-06T14:49:46;3.80;;;1.30;;
8927;SDS011;4499;48.304;11.902;2022-07-06T14:52:14;3.23;;;1.60;;
8927;SDS011;4499;48.304;11.902;2022-07-06T14:54:43;5.03;;;1.67;;
8927;SDS011;4499;48.304;11.902;2022-07-06T14:57:12;2.80;;;1.47;;
8927;SDS011;4499;48.304;11.902;2022-07-06T14:59:40;6.43;;;1.60;;
8927;SDS011;4499;48.304;11.902;2022-07-06T15:02:10;3.13;;;1.40;;
8927;SDS011;4499;48.304;11.902;2022-07-06T15:04:38;3.27;;;1.60;;
8927;SDS011;4499;48.304;11.902;2022-07-06T15:07:06;4.10;;;1.60;;
8927;SDS011;4499;48.304;11.902;2022-07-06T15:09:35;3.00;;;1.77;;
8927;SDS011;4499;48.304;11.902;2022-07-06T15:12:04;4.13;;;1.60;;
8927;SDS011;4499;48.304;11.902;2022-07-06T15:14:33;3.03;;;1.53;;
8927;SDS011;4499;48.304;11.902;2022-07-06T15:17:02;2.13;;;1.40;;
8927;SDS011;4499;48.304;11.902;2022-07-06T15:19:32;2.73;;;1.40;;